Solano — WDB7930 — position and weather

sailwx.info

Track history (hours):
 
Tides and Currents Weather Stations Pressure Air Temp Water Temp Dewpoint Dewpoint Depression Visibility Wind Speed Wind Dir Waves Ship Positions

Solano

Owner: San Francisco Bay Area Water Emergency Transportation Authority, Vallejo, WA. More information available from US FCC via Universal Licensing System and Coast Guard Vessel Documentation Center.

Last reported at 2017-Oct-19 03:42 UTC. Time now 2017-Oct-19 05:30 UTC.
Position N 38°06' W 122°16'.

Length 38 m.

Type: Passenger vessel. MMSI: 366950020.

Date/timePositionNaut miles runAvg speedWind from/ knotsBaromVisibWave heightAir tempDewpointWater temp
2017-Oct-19 03:42N 38°06' W 122°16'0 1.6
2017-Oct-19 03:30N 38°06' W 122°16'2 4.9
2017-Oct-19 03:00N 38°04' W 122°16'1326.2
2017-Oct-19 02:31N 37°52' W 122°25'4 7.5
2017-Oct-19 02:01N 37°49' W 122°24'3 6.6
2017-Oct-19 01:31N 37°52' W 122°25'1428.5
2017-Oct-19 01:00N 38°04' W 122°15'2 3.9
2017-Oct-19 00:30N 38°06' W 122°16'510.9
2017-Oct-19 00:00N 38°02' W 122°21'1326.0
2017-Oct-18 23:30N 37°49' W 122°23'2 3.1
2017-Oct-18 23:00N 37°48' W 122°24'1424.3
2017-Oct-18 22:26N 38°02' W 122°22'714.7
2017-Oct-18 21:59N 38°06' W 122°16'0 0.2
2017-Oct-18 20:18N 38°06' W 122°16'0 0.0
2017-Oct-18 20:01N 38°06' W 122°16'0 0.0
2017-Oct-18 19:30N 38°06' W 122°16'0 0.6
2017-Oct-18 19:00N 38°06' W 122°16'612.5
2017-Oct-18 18:31N 38°02' W 122°21'1326.4
2017-Oct-18 18:00N 37°49' W 122°25'1 2.5
2017-Oct-18 17:31N 37°48' W 122°23'1425.9
2017-Oct-18 16:58N 38°02' W 122°21'612.8
2017-Oct-18 16:30N 38°06' W 122°16'2 3.7
2017-Oct-18 16:00N 38°04' W 122°15'1325.8
2017-Oct-18 15:30N 37°54' W 122°25'612.7
2017-Oct-18 15:00N 37°48' W 122°24'1919.1
2017-Oct-18 14:00N 38°06' W 122°16'0 0.6
2017-Oct-18 13:30N 38°06' W 122°16'0 0.0
2017-Oct-18 03:45N 38°06' W 122°16'0 0.8
2017-Oct-18 03:23N 38°06' W 122°16'2 6.0
2017-Oct-18 03:00N 38°04' W 122°16'1326.0
2017-Oct-18 02:30N 37°53' W 122°25'4 8.3
2017-Oct-18 02:00N 37°49' W 122°24'3 5.3
2017-Oct-18 01:30N 37°51' W 122°25'1428.5
2017-Oct-18 01:00N 38°04' W 122°16'2 4.4
2017-Oct-18 00:30N 38°06' W 122°16'510.1
2017-Oct-18 00:00N 38°02' W 122°20'1225.3
2017-Oct-17 23:30N 37°50' W 122°24'2 4.5
2017-Oct-17 23:01N 37°48' W 122°24'1523.3
2017-Oct-17 22:22N 38°03' W 122°19'4 8.9
2017-Oct-17 21:52N 38°06' W 122°16'0 0.1
2017-Oct-17 19:14N 38°06' W 122°16'0 0.9
2017-Oct-17 19:00N 38°06' W 122°16'917.4
2017-Oct-17 18:28N 37°60' W 122°25'1121.4
2017-Oct-17 17:57N 37°49' W 122°25'1 2.8
2017-Oct-17 17:30N 37°48' W 122°24'1325.2
2017-Oct-17 17:00N 38°00' W 122°24'816.4
2017-Oct-17 16:29N 38°06' W 122°16'2 3.9
2017-Oct-17 15:59N 38°04' W 122°15'1428.7
2017-Oct-17 15:30N 37°53' W 122°25'510.3
2017-Oct-17 14:59N 37°48' W 122°24'1122.8
2017-Oct-17 14:31N 37°58' W 122°26'1121.0
2017-Oct-17 13:59N 38°06' W 122°16'0 0.0
2017-Oct-17 03:29N 38°06' W 122°16'2 4.0
2017-Oct-17 02:59N 38°04' W 122°15'1327.9
2017-Oct-17 02:31N 37°54' W 122°25'611.1
2017-Oct-17 02:01N 37°48' W 122°24'3 6.2
2017-Oct-17 01:31N 37°51' W 122°25'1527.9
2017-Oct-17 00:58N 38°04' W 122°15'2 3.9
2017-Oct-17 00:31N 38°06' W 122°16'714.1
2017-Oct-17 00:00N 38°01' W 122°22'1326.5
2017-Oct-16 23:30N 37°48' W 122°23'0 0.3
2017-Oct-16 23:00N 37°48' W 122°24'1224.5
2017-Oct-16 22:31N 38°00' W 122°24'912.3
2017-Oct-16 21:47N 38°06' W 122°16'0 0.1
2017-Oct-16 17:04N 38°06' W 122°16'0 3.9
2017-Oct-16 17:00N 38°06' W 122°16'611.7
2017-Oct-16 16:31N 38°02' W 122°21'1427.9
2017-Oct-16 16:00N 37°48' W 122°24'714.0
2017-Oct-16 15:31N 37°54' W 122°27'1427.6
2017-Oct-16 15:00N 38°04' W 122°15'2 3.6
2017-Oct-16 14:30N 38°06' W 122°16'1919.4
2017-Oct-16 13:30N 37°48' W 122°24'1223.1
2017-Oct-16 13:00N 37°59' W 122°25'10 1.3
2017-Oct-16 05:18N 38°06' W 122°16'0 0.7
2017-Oct-16 05:01N 38°06' W 122°16'917.8
2017-Oct-16 04:31N 37°60' W 122°24'1224.3
2017-Oct-16 04:00N 37°48' W 122°24'2 3.3
2017-Oct-16 03:31N 37°49' W 122°25'1325.0
2017-Oct-16 03:00N 38°01' W 122°22'713.8
2017-Oct-16 02:30N 38°06' W 122°16'0 0.0
2017-Oct-16 02:00N 38°06' W 122°16'1 2.5
2017-Oct-16 01:26N 38°05' W 122°15'1024.9
2017-Oct-16 01:01N 37°59' W 122°25'1121.6
2017-Oct-16 00:30N 37°48' W 122°24'1 2.4
2017-Oct-16 00:00N 37°49' W 122°25'1324.8
2017-Oct-15 23:30N 38°01' W 122°23'714.6
2017-Oct-15 23:00N 38°06' W 122°16'0 0.1
2017-Oct-15 21:11N 38°06' W 122°16'0 0.2
2017-Oct-15 20:45N 38°06' W 122°16'2 7.8
2017-Oct-15 20:30N 38°04' W 122°15'1326.5
2017-Oct-15 20:00N 37°54' W 122°25'612.3
2017-Oct-15 19:30N 37°48' W 122°24'1424.9
2017-Oct-15 18:57N 38°02' W 122°22'714.3
2017-Oct-15 18:30N 38°06' W 122°16'0 0.0
2017-Oct-15 18:00N 38°06' W 122°16'713.9
2017-Oct-15 17:30N 38°01' W 122°22'1427.0
2017-Oct-15 17:00N 37°48' W 122°24'1 2.9
2017-Oct-15 16:31N 37°49' W 122°25'1623.8
2017-Oct-15 15:50N 38°04' W 122°17'3 6.1
2017-Oct-15 15:25N 38°06' W 122°16'0 0.0
2017-Oct-15 05:17N 38°06' W 122°16'0 0.7
2017-Oct-15 05:00N 38°06' W 122°16'917.3
2017-Oct-15 04:30N 38°00' W 122°24'1224.7
2017-Oct-15 04:00N 37°48' W 122°24'2 3.2
2017-Oct-15 03:31N 37°49' W 122°25'1723.3
2017-Oct-15 02:48N 38°04' W 122°16'2 7.4
2017-Oct-15 02:30N 38°06' W 122°16'0 0.0
2017-Oct-15 02:00N 38°06' W 122°16'1 1.8
2017-Oct-15 01:25N 38°05' W 122°15'923.2
2017-Oct-15 01:01N 37°60' W 122°25'1223.7
2017-Oct-15 00:31N 37°48' W 122°24'1 2.4
2017-Oct-15 00:00N 37°49' W 122°25'1324.7
2017-Oct-14 23:28N 38°02' W 122°22'713.8
2017-Oct-14 22:59N 38°06' W 122°16'0 0.1
2017-Oct-14 21:06N 38°06' W 122°16'0 0.7
2017-Oct-14 20:56N 38°06' W 122°16'2 4.2
2017-Oct-14 20:29N 38°04' W 122°15'1327.1
2017-Oct-14 20:01N 37°55' W 122°25'713.8
2017-Oct-14 19:31N 37°48' W 122°24'1324.9
2017-Oct-14 19:00N 38°00' W 122°24'816.7
2017-Oct-14 18:30N 38°06' W 122°16'0 0.0
2017-Oct-14 18:00N 38°06' W 122°16'612.4
2017-Oct-14 17:31N 38°02' W 122°21'1427.9
2017-Oct-14 17:01N 37°48' W 122°24'1 2.9
2017-Oct-14 16:30N 37°49' W 122°25'1325.2
2017-Oct-14 16:00N 38°02' W 122°22'713.7
2017-Oct-14 15:30N 38°06' W 122°16'0 0.0
2017-Oct-14 02:05N 38°06' W 122°16'0 1.4
2017-Oct-14 01:55N 38°06' W 122°16'615.5
2017-Oct-14 01:31N 38°01' W 122°21'1427.3
2017-Oct-14 01:00N 37°48' W 122°24'4 8.4
2017-Oct-14 00:31N 37°52' W 122°25'1527.5
2017-Oct-13 23:59N 38°04' W 122°15'2 4.1
2017-Oct-13 23:30N 38°06' W 122°16'715.2
2017-Oct-13 23:01N 38°01' W 122°23'1326.2
2017-Oct-13 22:30N 37°48' W 122°24'1 2.4
2017-Oct-13 22:01N 37°49' W 122°25'1121.2
2017-Oct-13 21:31N 37°59' W 122°25'1016.5
2017-Oct-13 20:54N 38°06' W 122°16'0 0.1
2017-Oct-13 19:21N 38°06' W 122°16'0 0.4
2017-Oct-13 18:58N 38°06' W 122°16'715.7
2017-Oct-13 18:30N 38°01' W 122°23'1325.4
2017-Oct-13 18:00N 37°49' W 122°25'1 2.5
2017-Oct-13 17:30N 37°48' W 122°24'1425.9
2017-Oct-13 16:59N 38°02' W 122°22'713.9
2017-Oct-13 16:30N 38°06' W 122°16'2 3.5
2017-Oct-13 16:00N 38°04' W 122°15'1428.3
2017-Oct-13 15:30N 37°53' W 122°25'611.1
2017-Oct-13 15:00N 37°48' W 122°24'1423.6
2017-Oct-13 14:25N 38°02' W 122°22'715.2
2017-Oct-13 13:59N 38°06' W 122°16'0 0.0
2017-Oct-11 17:06N 38°06' W 122°16'0 1.7
2017-Oct-11 17:00N 38°06' W 122°16'2 0.1
2017-Oct-11 00:00N 38°04' W 122°16'2 4.1
2017-Oct-10 23:30N 38°06' W 122°16'1018.6
2017-Oct-10 22:59N 37°59' W 122°25'1224.7
2017-Oct-10 22:31N 37°48' W 122°24'1 2.4
2017-Oct-10 22:00N 37°49' W 122°25'1723.4
2017-Oct-10 21:17N 38°04' W 122°16'2 7.6
2017-Oct-10 21:01N 38°06' W 122°16'0 0.0
2017-Oct-10 17:10N 38°06' W 122°16'1 2.7
2017-Oct-10 16:54N 38°06' W 122°15'716.7
2017-Oct-10 16:31N 38°01' W 122°22'1426.9
2017-Oct-10 16:00N 37°48' W 122°24'4 8.0
2017-Oct-10 15:31N 37°52' W 122°25'1527.0
2017-Oct-10 14:58N 38°04' W 122°15'9 9.6
2017-Oct-10 14:00N 37°59' W 122°25'1223.4
2017-Oct-10 13:30N 37°48' W 122°24'1424.4
2017-Oct-10 12:57N 38°02' W 122°22'710.3
2017-Oct-10 12:18N 38°06' W 122°16'0 0.0
2017-Oct-10 02:10N 38°06' W 122°16'0 1.7
2017-Oct-10 02:01N 38°06' W 122°16'714.0
2017-Oct-10 01:31N 38°01' W 122°22'1326.4
2017-Oct-10 01:00N 37°48' W 122°24'4 8.8
2017-Oct-10 00:30N 37°52' W 122°25'1511.3
2017-Oct-09 23:13N 38°04' W 122°15'733.4
2017-Oct-09 23:00N 38°01' W 122°22'1326.3
2017-Oct-09 22:30N 37°48' W 122°24'1 2.3
2017-Oct-09 21:59N 37°49' W 122°25'19 1.0
2017-Oct-09 03:51N 38°06' W 122°16'  
Track history (hours):
 
Tides and Currents Weather Stations Pressure Air Temp Water Temp Dewpoint Dewpoint Depression Visibility Wind Speed Wind Dir Waves Ship Positions

Solano

Owner: San Francisco Bay Area Water Emergency Transportation Authority, Vallejo, WA. More information available from US FCC via Universal Licensing System and Coast Guard Vessel Documentation Center.

Last reported at 2017-Oct-19 03:42 UTC. Time now 2017-Oct-19 05:30 UTC.
Position N 38°06' W 122°16'.

Length 38 m.

Type: Passenger vessel. MMSI: 366950020.

Date/timePositionNaut miles runAvg speedWind from/ knotsBaromVisibWave heightAir tempDewpointWater temp
2017-Oct-19 03:42N 38°06' W 122°16'0 1.6
2017-Oct-19 03:30N 38°06' W 122°16'2 4.9
2017-Oct-19 03:00N 38°04' W 122°16'1326.2
2017-Oct-19 02:31N 37°52' W 122°25'4 7.5
2017-Oct-19 02:01N 37°49' W 122°24'3 6.6
2017-Oct-19 01:31N 37°52' W 122°25'1428.5
2017-Oct-19 01:00N 38°04' W 122°15'2 3.9
2017-Oct-19 00:30N 38°06' W 122°16'510.9
2017-Oct-19 00:00N 38°02' W 122°21'1326.0
2017-Oct-18 23:30N 37°49' W 122°23'2 3.1
2017-Oct-18 23:00N 37°48' W 122°24'1424.3
2017-Oct-18 22:26N 38°02' W 122°22'714.7
2017-Oct-18 21:59N 38°06' W 122°16'0 0.2
2017-Oct-18 20:18N 38°06' W 122°16'0 0.0
2017-Oct-18 20:01N 38°06' W 122°16'0 0.0
2017-Oct-18 19:30N 38°06' W 122°16'0 0.6
2017-Oct-18 19:00N 38°06' W 122°16'612.5
2017-Oct-18 18:31N 38°02' W 122°21'1326.4
2017-Oct-18 18:00N 37°49' W 122°25'1 2.5
2017-Oct-18 17:31N 37°48' W 122°23'1425.9
2017-Oct-18 16:58N 38°02' W 122°21'612.8
2017-Oct-18 16:30N 38°06' W 122°16'2 3.7
2017-Oct-18 16:00N 38°04' W 122°15'1325.8
2017-Oct-18 15:30N 37°54' W 122°25'612.7
2017-Oct-18 15:00N 37°48' W 122°24'1919.1
2017-Oct-18 14:00N 38°06' W 122°16'0 0.6
2017-Oct-18 13:30N 38°06' W 122°16'0 0.0
2017-Oct-18 03:45N 38°06' W 122°16'0 0.8
2017-Oct-18 03:23N 38°06' W 122°16'2 6.0
2017-Oct-18 03:00N 38°04' W 122°16'1326.0
2017-Oct-18 02:30N 37°53' W 122°25'4 8.3
2017-Oct-18 02:00N 37°49' W 122°24'3 5.3
2017-Oct-18 01:30N 37°51' W 122°25'1428.5
2017-Oct-18 01:00N 38°04' W 122°16'2 4.4
2017-Oct-18 00:30N 38°06' W 122°16'510.1
2017-Oct-18 00:00N 38°02' W 122°20'1225.3
2017-Oct-17 23:30N 37°50' W 122°24'2 4.5
2017-Oct-17 23:01N 37°48' W 122°24'1523.3
2017-Oct-17 22:22N 38°03' W 122°19'4 8.9
2017-Oct-17 21:52N 38°06' W 122°16'0 0.1
2017-Oct-17 19:14N 38°06' W 122°16'0 0.9
2017-Oct-17 19:00N 38°06' W 122°16'917.4
2017-Oct-17 18:28N 37°60' W 122°25'1121.4
2017-Oct-17 17:57N 37°49' W 122°25'1 2.8
2017-Oct-17 17:30N 37°48' W 122°24'1325.2
2017-Oct-17 17:00N 38°00' W 122°24'816.4
2017-Oct-17 16:29N 38°06' W 122°16'2 3.9
2017-Oct-17 15:59N 38°04' W 122°15'1428.7
2017-Oct-17 15:30N 37°53' W 122°25'510.3
2017-Oct-17 14:59N 37°48' W 122°24'1122.8
2017-Oct-17 14:31N 37°58' W 122°26'1121.0
2017-Oct-17 13:59N 38°06' W 122°16'0 0.0
2017-Oct-17 03:29N 38°06' W 122°16'2 4.0
2017-Oct-17 02:59N 38°04' W 122°15'1327.9
2017-Oct-17 02:31N 37°54' W 122°25'611.1
2017-Oct-17 02:01N 37°48' W 122°24'3 6.2
2017-Oct-17 01:31N 37°51' W 122°25'1527.9
2017-Oct-17 00:58N 38°04' W 122°15'2 3.9
2017-Oct-17 00:31N 38°06' W 122°16'714.1
2017-Oct-17 00:00N 38°01' W 122°22'1326.5
2017-Oct-16 23:30N 37°48' W 122°23'0 0.3
2017-Oct-16 23:00N 37°48' W 122°24'1224.5
2017-Oct-16 22:31N 38°00' W 122°24'912.3
2017-Oct-16 21:47N 38°06' W 122°16'0 0.1
2017-Oct-16 17:04N 38°06' W 122°16'0 3.9
2017-Oct-16 17:00N 38°06' W 122°16'611.7
2017-Oct-16 16:31N 38°02' W 122°21'1427.9
2017-Oct-16 16:00N 37°48' W 122°24'714.0
2017-Oct-16 15:31N 37°54' W 122°27'1427.6
2017-Oct-16 15:00N 38°04' W 122°15'2 3.6
2017-Oct-16 14:30N 38°06' W 122°16'1919.4
2017-Oct-16 13:30N 37°48' W 122°24'1223.1
2017-Oct-16 13:00N 37°59' W 122°25'10 1.3
2017-Oct-16 05:18N 38°06' W 122°16'0 0.7
2017-Oct-16 05:01N 38°06' W 122°16'917.8
2017-Oct-16 04:31N 37°60' W 122°24'1224.3
2017-Oct-16 04:00N 37°48' W 122°24'2 3.3
2017-Oct-16 03:31N 37°49' W 122°25'1325.0
2017-Oct-16 03:00N 38°01' W 122°22'713.8
2017-Oct-16 02:30N 38°06' W 122°16'0 0.0
2017-Oct-16 02:00N 38°06' W 122°16'1 2.5
2017-Oct-16 01:26N 38°05' W 122°15'1024.9
2017-Oct-16 01:01N 37°59' W 122°25'1121.6
2017-Oct-16 00:30N 37°48' W 122°24'1 2.4
2017-Oct-16 00:00N 37°49' W 122°25'1324.8
2017-Oct-15 23:30N 38°01' W 122°23'714.6
2017-Oct-15 23:00N 38°06' W 122°16'0 0.1
2017-Oct-15 21:11N 38°06' W 122°16'0 0.2
2017-Oct-15 20:45N 38°06' W 122°16'2 7.8
2017-Oct-15 20:30N 38°04' W 122°15'1326.5
2017-Oct-15 20:00N 37°54' W 122°25'612.3
2017-Oct-15 19:30N 37°48' W 122°24'1424.9
2017-Oct-15 18:57N 38°02' W 122°22'714.3
2017-Oct-15 18:30N 38°06' W 122°16'0 0.0
2017-Oct-15 18:00N 38°06' W 122°16'713.9
2017-Oct-15 17:30N 38°01' W 122°22'1427.0
2017-Oct-15 17:00N 37°48' W 122°24'1 2.9
2017-Oct-15 16:31N 37°49' W 122°25'1623.8
2017-Oct-15 15:50N 38°04' W 122°17'3 6.1
2017-Oct-15 15:25N 38°06' W 122°16'0 0.0
2017-Oct-15 05:17N 38°06' W 122°16'0 0.7
2017-Oct-15 05:00N 38°06' W 122°16'917.3
2017-Oct-15 04:30N 38°00' W 122°24'1224.7
2017-Oct-15 04:00N 37°48' W 122°24'2 3.2
2017-Oct-15 03:31N 37°49' W 122°25'1723.3
2017-Oct-15 02:48N 38°04' W 122°16'2 7.4
2017-Oct-15 02:30N 38°06' W 122°16'0 0.0
2017-Oct-15 02:00N 38°06' W 122°16'1 1.8
2017-Oct-15 01:25N 38°05' W 122°15'923.2
2017-Oct-15 01:01N 37°60' W 122°25'1223.7
2017-Oct-15 00:31N 37°48' W 122°24'1 2.4
2017-Oct-15 00:00N 37°49' W 122°25'1324.7
2017-Oct-14 23:28N 38°02' W 122°22'713.8
2017-Oct-14 22:59N 38°06' W 122°16'0 0.1
2017-Oct-14 21:06N 38°06' W 122°16'0 0.7
2017-Oct-14 20:56N 38°06' W 122°16'2 4.2
2017-Oct-14 20:29N 38°04' W 122°15'1327.1
2017-Oct-14 20:01N 37°55' W 122°25'713.8
2017-Oct-14 19:31N 37°48' W 122°24'1324.9
2017-Oct-14 19:00N 38°00' W 122°24'816.7
2017-Oct-14 18:30N 38°06' W 122°16'0 0.0
2017-Oct-14 18:00N 38°06' W 122°16'612.4
2017-Oct-14 17:31N 38°02' W 122°21'1427.9
2017-Oct-14 17:01N 37°48' W 122°24'1 2.9
2017-Oct-14 16:30N 37°49' W 122°25'1325.2
2017-Oct-14 16:00N 38°02' W 122°22'713.7
2017-Oct-14 15:30N 38°06' W 122°16'0 0.0
2017-Oct-14 02:05N 38°06' W 122°16'0 1.4
2017-Oct-14 01:55N 38°06' W 122°16'615.5
2017-Oct-14 01:31N 38°01' W 122°21'1427.3
2017-Oct-14 01:00N 37°48' W 122°24'4 8.4
2017-Oct-14 00:31N 37°52' W 122°25'1527.5
2017-Oct-13 23:59N 38°04' W 122°15'2 4.1
2017-Oct-13 23:30N 38°06' W 122°16'715.2
2017-Oct-13 23:01N 38°01' W 122°23'1326.2
2017-Oct-13 22:30N 37°48' W 122°24'1 2.4
2017-Oct-13 22:01N 37°49' W 122°25'1121.2
2017-Oct-13 21:31N 37°59' W 122°25'1016.5
2017-Oct-13 20:54N 38°06' W 122°16'0 0.1
2017-Oct-13 19:21N 38°06' W 122°16'0 0.4
2017-Oct-13 18:58N 38°06' W 122°16'715.7
2017-Oct-13 18:30N 38°01' W 122°23'1325.4
2017-Oct-13 18:00N 37°49' W 122°25'1 2.5
2017-Oct-13 17:30N 37°48' W 122°24'1425.9
2017-Oct-13 16:59N 38°02' W 122°22'713.9
2017-Oct-13 16:30N 38°06' W 122°16'2 3.5
2017-Oct-13 16:00N 38°04' W 122°15'1428.3
2017-Oct-13 15:30N 37°53' W 122°25'611.1
2017-Oct-13 15:00N 37°48' W 122°24'1423.6
2017-Oct-13 14:25N 38°02' W 122°22'715.2
2017-Oct-13 13:59N 38°06' W 122°16'0 0.0
2017-Oct-11 17:06N 38°06' W 122°16'0 1.7
2017-Oct-11 17:00N 38°06' W 122°16'2 0.1
2017-Oct-11 00:00N 38°04' W 122°16'2 4.1
2017-Oct-10 23:30N 38°06' W 122°16'1018.6
2017-Oct-10 22:59N 37°59' W 122°25'1224.7
2017-Oct-10 22:31N 37°48' W 122°24'1 2.4
2017-Oct-10 22:00N 37°49' W 122°25'1723.4
2017-Oct-10 21:17N 38°04' W 122°16'2 7.6
2017-Oct-10 21:01N 38°06' W 122°16'0 0.0
2017-Oct-10 17:10N 38°06' W 122°16'1 2.7
2017-Oct-10 16:54N 38°06' W 122°15'716.7
2017-Oct-10 16:31N 38°01' W 122°22'1426.9
2017-Oct-10 16:00N 37°48' W 122°24'4 8.0
2017-Oct-10 15:31N 37°52' W 122°25'1527.0
2017-Oct-10 14:58N 38°04' W 122°15'9 9.6
2017-Oct-10 14:00N 37°59' W 122°25'1223.4
2017-Oct-10 13:30N 37°48' W 122°24'1424.4
2017-Oct-10 12:57N 38°02' W 122°22'710.3
2017-Oct-10 12:18N 38°06' W 122°16'0 0.0
2017-Oct-10 02:10N 38°06' W 122°16'0 1.7
2017-Oct-10 02:01N 38°06' W 122°16'714.0
2017-Oct-10 01:31N 38°01' W 122°22'1326.4
2017-Oct-10 01:00N 37°48' W 122°24'4 8.8
2017-Oct-10 00:30N 37°52' W 122°25'1511.3
2017-Oct-09 23:13N 38°04' W 122°15'733.4
2017-Oct-09 23:00N 38°01' W 122°22'1326.3
2017-Oct-09 22:30N 37°48' W 122°24'1 2.3
2017-Oct-09 21:59N 37°49' W 122°25'19 1.0
2017-Oct-09 03:51N 38°06' W 122°16'  

Dump ship's entire track history